sensor_id;sensor_type;location;lat;lon;timestamp;pressure;altitude;pressure_sealevel;temperature;humidity
31403;BME280;18039;52.188;21.024;2022-09-17T00:01:23;75526.81;;;-141.45;79.30
31403;BME280;18039;52.188;21.024;2022-09-17T00:03:52;75530.84;;;-141.45;79.29
31403;BME280;18039;52.188;21.024;2022-09-17T00:06:23;75528.84;;;-141.45;78.92
31403;BME280;18039;52.188;21.024;2022-09-17T00:08:51;75522.75;;;-141.45;79.26
31403;BME280;18039;52.188;21.024;2022-09-17T00:11:22;75518.69;;;-141.45;79.11
31403;BME280;18039;52.188;21.024;2022-09-17T00:13:50;75524.78;;;-141.45;78.95
31403;BME280;18039;52.188;21.024;2022-09-17T00:16:29;75514.66;;;-141.45;78.91
31403;BME280;18039;52.188;21.024;2022-09-17T00:18:58;75518.69;;;-141.45;78.73
31403;BME280;18039;52.188;21.024;2022-09-17T00:21:26;75518.69;;;-141.45;78.76
31403;BME280;18039;52.188;21.024;2022-09-17T00:23:55;75530.84;;;-141.45;78.86
31403;BME280;18039;52.188;21.024;2022-09-17T00:26:23;75534.91;;;-141.45;79.04
31403;BME280;18039;52.188;21.024;2022-09-17T00:28:54;75538.97;;;-141.45;79.41
31403;BME280;18039;52.188;21.024;2022-09-17T00:31:21;75534.91;;;-141.45;79.53
31403;BME280;18039;52.188;21.024;2022-09-17T00:33:50;75538.97;;;-141.45;79.63
31403;BME280;18039;52.188;21.024;2022-09-17T00:36:18;75538.97;;;-141.45;79.42
31403;BME280;18039;52.188;21.024;2022-09-17T00:38:54;75541.00;;;-141.45;79.34
31403;BME280;18039;52.188;21.024;2022-09-17T00:41:24;75543.00;;;-141.45;79.50
31403;BME280;18039;52.188;21.024;2022-09-17T00:43:53;75545.03;;;-141.45;79.91
31403;BME280;18039;52.188;21.024;2022-09-17T00:46:28;75555.19;;;-141.45;79.73
31403;BME280;18039;52.188;21.024;2022-09-17T00:49:02;75555.19;;;-141.45;79.93
31403;BME280;18039;52.188;21.024;2022-09-17T00:51:35;75557.19;;;-141.45;79.63
31403;BME280;18039;52.188;21.024;2022-09-17T00:54:05;75567.34;;;-141.45;79.81
31403;BME280;18039;52.188;21.024;2022-09-17T00:56:36;75567.34;;;-141.45;79.65
31403;BME280;18039;52.188;21.024;2022-09-17T00:59:04;75563.28;;;-141.45;79.95
31403;BME280;18039;52.188;21.024;2022-09-17T01:01:32;75567.34;;;-141.45;79.84
31403;BME280;18039;52.188;21.024;2022-09-17T01:03:59;75575.44;;;-141.45;79.87
31403;BME280;18039;52.188;21.024;2022-09-17T01:11:47;75579.50;;;-141.45;80.22
31403;BME280;18039;52.188;21.024;2022-09-17T01:20:58;75579.50;;;-141.45;80.38
31403;BME280;18039;52.188;21.024;2022-09-17T01:26:49;75585.56;;;-141.45;80.46
31403;BME280;18039;52.188;21.024;2022-09-17T01:32:11;75599.75;;;-141.45;80.52
31403;BME280;18039;52.188;21.024;2022-09-17T01:34:59;75595.69;;;-141.45;80.79
31403;BME280;18039;52.188;21.024;2022-09-17T01:37:37;75599.75;;;-141.45;80.78
31403;BME280;18039;52.188;21.024;2022-09-17T01:42:47;75607.88;;;-141.45;80.78
31403;BME280;18039;52.188;21.024;2022-09-17T01:45:39;75607.88;;;-141.45;80.81
31403;BME280;18039;52.188;21.024;2022-09-17T01:48:17;75618.00;;;-141.45;80.88
31403;BME280;18039;52.188;21.024;2022-09-17T01:50:55;75624.06;;;-141.45;81.34
31403;BME280;18039;52.188;21.024;2022-09-17T01:53:28;75624.06;;;-141.45;81.10
31403;BME280;18039;52.188;21.024;2022-09-17T01:55:58;75632.19;;;-141.45;81.30
31403;BME280;18039;52.188;21.024;2022-09-17T01:58:34;75632.19;;;-141.45;81.47
31403;BME280;18039;52.188;21.024;2022-09-17T02:01:04;75640.28;;;-141.45;81.81
31403;BME280;18039;52.188;21.024;2022-09-17T02:03:37;75640.28;;;-141.45;82.00
31403;BME280;18039;52.188;21.024;2022-09-17T02:06:11;75648.41;;;-141.45;82.25
31403;BME280;18039;52.188;21.024;2022-09-17T02:08:49;75652.44;;;-141.45;82.46
31403;BME280;18039;52.188;21.024;2022-09-17T02:11:18;75652.44;;;-141.45;82.61
31403;BME280;18039;52.188;21.024;2022-09-17T02:16:16;75658.53;;;-141.45;82.97
31403;BME280;18039;52.188;21.024;2022-09-17T02:26:59;75672.72;;;-141.45;83.54
31403;BME280;18039;52.188;21.024;2022-09-17T02:29:32;75672.72;;;-141.45;83.96
31403;BME280;18039;52.188;21.024;2022-09-17T02:32:00;75680.81;;;-141.45;84.08
31403;BME280;18039;52.188;21.024;2022-09-17T02:34:27;75684.88;;;-141.45;83.99
31403;BME280;18039;52.188;21.024;2022-09-17T02:36:56;75686.91;;;-141.45;84.29
31403;BME280;18039;52.188;21.024;2022-09-17T02:39:26;75684.88;;;-141.45;84.12
31403;BME280;18039;52.188;21.024;2022-09-17T02:58:39;75709.19;;;-141.45;84.67
31403;BME280;18039;52.188;21.024;2022-09-17T03:01:15;75709.19;;;-141.45;84.82
31403;BME280;18039;52.188;21.024;2022-09-17T03:03:45;75715.28;;;-141.45;84.81
31403;BME280;18039;52.188;21.024;2022-09-17T03:06:13;75721.34;;;-141.45;84.82
31403;BME280;18039;52.188;21.024;2022-09-17T03:08:41;75725.41;;;-141.45;84.99
31403;BME280;18039;52.188;21.024;2022-09-17T03:11:10;75721.34;;;-141.45;85.42
31403;BME280;18039;52.188;21.024;2022-09-17T03:13:38;75721.34;;;-141.45;85.61
31403;BME280;18039;52.188;21.024;2022-09-17T03:16:06;75719.31;;;-141.45;85.28
31403;BME280;18039;52.188;21.024;2022-09-17T03:18:33;75729.47;;;-141.45;85.33
31403;BME280;18039;52.188;21.024;2022-09-17T03:21:01;75725.41;;;-141.45;85.38
31403;BME280;18039;52.188;21.024;2022-09-17T03:23:27;75725.41;;;-141.45;85.86
31403;BME280;18039;52.188;21.024;2022-09-17T03:25:54;75721.34;;;-141.45;85.90
31403;BME280;18039;52.188;21.024;2022-09-17T03:28:22;75721.34;;;-141.45;85.64
31403;BME280;18039;52.188;21.024;2022-09-17T03:30:48;75725.41;;;-141.45;85.61
31403;BME280;18039;52.188;21.024;2022-09-17T03:33:15;75729.47;;;-141.45;85.90
31403;BME280;18039;52.188;21.024;2022-09-17T03:35:44;75737.56;;;-141.45;85.95
31403;BME280;18039;52.188;21.024;2022-09-17T03:38:11;75729.47;;;-141.45;86.03
31403;BME280;18039;52.188;21.024;2022-09-17T03:40:39;75725.41;;;-141.45;86.22
31403;BME280;18039;52.188;21.024;2022-09-17T03:43:06;75733.50;;;-141.45;86.36
31403;BME280;18039;52.188;21.024;2022-09-17T03:45:34;75735.53;;;-141.45;86.19
31403;BME280;18039;52.188;21.024;2022-09-17T03:48:01;75731.47;;;-141.45;86.24
31403;BME280;18039;52.188;21.024;2022-09-17T03:50:28;75733.50;;;-141.45;86.27
31403;BME280;18039;52.188;21.024;2022-09-17T03:52:54;75727.44;;;-141.45;86.19
31403;BME280;18039;52.188;21.024;2022-09-17T03:55:21;75729.47;;;-141.45;86.09
31403;BME280;18039;52.188;21.024;2022-09-17T03:57:49;75729.47;;;-141.45;86.31
31403;BME280;18039;52.188;21.024;2022-09-17T04:00:17;75739.59;;;-141.45;86.47
31403;BME280;18039;52.188;21.024;2022-09-17T04:02:43;75737.56;;;-141.45;86.57
31403;BME280;18039;52.188;21.024;2022-09-17T04:05:11;75737.56;;;-141.45;86.56
31403;BME280;18039;52.188;21.024;2022-09-17T04:07:39;75737.56;;;-141.45;86.52
31403;BME280;18039;52.188;21.024;2022-09-17T04:10:07;75741.63;;;-141.45;86.61
31403;BME280;18039;52.188;21.024;2022-09-17T04:12:34;75741.63;;;-141.45;86.82
31403;BME280;18039;52.188;21.024;2022-09-17T04:15:02;75753.78;;;-141.45;86.80
31403;BME280;18039;52.188;21.024;2022-09-17T04:17:29;75749.72;;;-141.45;87.18
31403;BME280;18039;52.188;21.024;2022-09-17T04:19:56;75745.66;;;-141.45;86.72
31403;BME280;18039;52.188;21.024;2022-09-17T04:22:24;75743.66;;;-141.45;86.90
31403;BME280;18039;52.188;21.024;2022-09-17T04:24:51;75741.63;;;-141.45;86.81
31403;BME280;18039;52.188;21.024;2022-09-17T04:27:18;75751.75;;;-141.45;86.85
31403;BME280;18039;52.188;21.024;2022-09-17T04:29:45;75761.88;;;-141.45;87.04
31403;BME280;18039;52.188;21.024;2022-09-17T04:32:12;75749.72;;;-141.45;87.14
31403;BME280;18039;52.188;21.024;2022-09-17T04:34:39;75757.81;;;-141.45;87.26
31403;BME280;18039;52.188;21.024;2022-09-17T04:37:06;75753.78;;;-141.45;87.34
31403;BME280;18039;52.188;21.024;2022-09-17T04:39:33;75757.81;;;-141.45;87.30
31403;BME280;18039;52.188;21.024;2022-09-17T04:42:00;75753.78;;;-141.45;87.21
31403;BME280;18039;52.188;21.024;2022-09-17T04:44:27;75749.72;;;-141.45;87.38
31403;BME280;18039;52.188;21.024;2022-09-17T04:46:54;75747.69;;;-141.45;87.20
31403;BME280;18039;52.188;21.024;2022-09-17T04:49:22;75745.66;;;-141.45;87.26
31403;BME280;18039;52.188;21.024;2022-09-17T04:51:49;75749.72;;;-141.45;86.99
31403;BME280;18039;52.188;21.024;2022-09-17T04:54:15;75753.78;;;-141.45;87.10
31403;BME280;18039;52.188;21.024;2022-09-17T04:56:43;75751.75;;;-141.45;86.96
31403;BME280;18039;52.188;21.024;2022-09-17T04:59:10;75747.69;;;-141.45;87.08
31403;BME280;18039;52.188;21.024;2022-09-17T05:01:36;75745.66;;;-141.45;87.14
31403;BME280;18039;52.188;21.024;2022-09-17T05:04:03;75737.56;;;-141.45;87.19
31403;BME280;18039;52.188;21.024;2022-09-17T05:06:30;75741.63;;;-141.45;86.97
31403;BME280;18039;52.188;21.024;2022-09-17T05:08:57;75737.56;;;-141.45;86.99
31403;BME280;18039;52.188;21.024;2022-09-17T05:11:25;75733.50;;;-141.45;86.69
31403;BME280;18039;52.188;21.024;2022-09-17T05:13:52;75723.38;;;-141.45;86.77
31403;BME280;18039;52.188;21.024;2022-09-17T05:16:19;75725.41;;;-141.45;86.78
31403;BME280;18039;52.188;21.024;2022-09-17T05:18:46;75721.34;;;-141.45;86.75
31403;BME280;18039;52.188;21.024;2022-09-17T05:21:15;75713.25;;;-141.45;86.45
31403;BME280;18039;52.188;21.024;2022-09-17T05:23:42;75697.03;;;-141.45;86.17
31403;BME280;18039;52.188;21.024;2022-09-17T05:26:09;75697.03;;;-141.45;85.89
31403;BME280;18039;52.188;21.024;2022-09-17T05:28:36;75680.81;;;-141.45;85.83
31403;BME280;18039;52.188;21.024;2022-09-17T05:31:03;75664.59;;;-141.45;85.62
31403;BME280;18039;52.188;21.024;2022-09-17T05:33:30;75660.56;;;-141.45;85.18
31403;BME280;18039;52.188;21.024;2022-09-17T05:35:57;75644.34;;;-141.45;84.48
31403;BME280;18039;52.188;21.024;2022-09-17T05:38:25;75620.03;;;-141.45;84.19
31403;BME280;18039;52.188;21.024;2022-09-17T05:40:52;75603.81;;;-141.45;83.57
31403;BME280;18039;52.188;21.024;2022-09-17T05:43:19;75587.59;;;-141.45;83.37
31403;BME280;18039;52.188;21.024;2022-09-17T05:45:46;75567.34;;;-141.45;82.13
31403;BME280;18039;52.188;21.024;2022-09-17T05:48:14;75559.22;;;-141.45;81.61
31403;BME280;18039;52.188;21.024;2022-09-17T05:50:41;75551.13;;;-141.45;80.89
31403;BME280;18039;52.188;21.024;2022-09-17T05:53:12;75538.97;;;-141.45;80.80
31403;BME280;18039;52.188;21.024;2022-09-17T05:55:41;75530.84;;;-141.45;80.76
31403;BME280;18039;52.188;21.024;2022-09-17T05:58:12;75518.69;;;-141.45;80.75
31403;BME280;18039;52.188;21.024;2022-09-17T06:00:39;75506.53;;;-141.45;80.04
31403;BME280;18039;52.188;21.024;2022-09-17T06:03:09;75490.31;;;-141.45;79.54
31403;BME280;18039;52.188;21.024;2022-09-17T06:05:36;75476.16;;;-141.45;79.26
31403;BME280;18039;52.188;21.024;2022-09-17T06:08:04;75466.00;;;-141.45;78.51
31403;BME280;18039;52.188;21.024;2022-09-17T06:10:35;75453.84;;;-141.45;77.63
31403;BME280;18039;52.188;21.024;2022-09-17T06:13:02;75433.59;;;-141.45;76.73
31403;BME280;18039;52.188;21.024;2022-09-17T06:15:29;75413.31;;;-141.45;76.47
31403;BME280;18039;52.188;21.024;2022-09-17T06:17:56;75405.22;;;-141.45;76.40
31403;BME280;18039;52.188;21.024;2022-09-17T06:20:23;75397.13;;;-141.45;74.64
31403;BME280;18039;52.188;21.024;2022-09-17T06:22:55;75393.06;;;-141.45;75.31
31403;BME280;18039;52.188;21.024;2022-09-17T06:25:24;75393.06;;;-141.45;75.12
31403;BME280;18039;52.188;21.024;2022-09-17T06:27:52;75378.88;;;-141.45;74.19
31403;BME280;18039;52.188;21.024;2022-09-17T06:30:19;75372.78;;;-141.45;73.94
31403;BME280;18039;52.188;21.024;2022-09-17T06:32:46;75368.75;;;-141.45;73.58
31403;BME280;18039;52.188;21.024;2022-09-17T06:35:13;75348.47;;;-141.45;73.23
31403;BME280;18039;52.188;21.024;2022-09-17T06:37:40;75340.38;;;-141.45;73.66
31403;BME280;18039;52.188;21.024;2022-09-17T06:40:07;75324.16;;;-141.45;72.19
31403;BME280;18039;52.188;21.024;2022-09-17T06:42:34;75320.13;;;-141.45;72.15
31403;BME280;18039;52.188;21.024;2022-09-17T06:45:01;75312.00;;;-141.45;71.68
31403;BME280;18039;52.188;21.024;2022-09-17T06:47:36;75293.78;;;-141.45;71.17
31403;BME280;18039;52.188;21.024;2022-09-17T06:50:03;75287.69;;;-141.45;71.47
31403;BME280;18039;52.188;21.024;2022-09-17T06:52:29;75283.63;;;-141.45;70.33
31403;BME280;18039;52.188;21.024;2022-09-17T06:54:56;75291.75;;;-141.45;70.22
31403;BME280;18039;52.188;21.024;2022-09-17T06:57:23;75287.69;;;-141.45;70.20
31403;BME280;18039;52.188;21.024;2022-09-17T06:59:50;75287.69;;;-141.45;70.28
31403;BME280;18039;52.188;21.024;2022-09-17T07:02:17;75263.38;;;-141.45;69.64
31403;BME280;18039;52.188;21.024;2022-09-17T07:04:44;75257.28;;;-141.45;69.03
31403;BME280;18039;52.188;21.024;2022-09-17T07:07:11;75235.00;;;-141.45;68.22
31403;BME280;18039;52.188;21.024;2022-09-17T07:09:38;75239.06;;;-141.45;68.12
31403;BME280;18039;52.188;21.024;2022-09-17T07:12:06;75224.88;;;-141.45;68.71
31403;BME280;18039;52.188;21.024;2022-09-17T07:14:33;75206.63;;;-141.45;68.22
31403;BME280;18039;52.188;21.024;2022-09-17T07:17:01;75206.63;;;-141.45;67.98
31403;BME280;18039;52.188;21.024;2022-09-17T07:19:29;75204.63;;;-141.45;67.42
31403;BME280;18039;52.188;21.024;2022-09-17T07:21:56;75228.94;;;-141.45;67.95
31403;BME280;18039;52.188;21.024;2022-09-17T07:24:23;75247.16;;;-141.45;68.45
31403;BME280;18039;52.188;21.024;2022-09-17T07:26:50;75259.31;;;-141.45;69.08
31403;BME280;18039;52.188;21.024;2022-09-17T07:29:17;75263.38;;;-141.45;69.61
31403;BME280;18039;52.188;21.024;2022-09-17T07:31:44;75263.38;;;-141.45;69.92
31403;BME280;18039;52.188;21.024;2022-09-17T07:34:11;75263.38;;;-141.45;69.83
31403;BME280;18039;52.188;21.024;2022-09-17T07:36:38;75267.44;;;-141.45;70.15
31403;BME280;18039;52.188;21.024;2022-09-17T07:39:05;75291.75;;;-141.45;69.96
31403;BME280;18039;52.188;21.024;2022-09-17T07:41:32;75299.84;;;-141.45;70.57
31403;BME280;18039;52.188;21.024;2022-09-17T07:44:00;75297.81;;;-141.45;71.07
31403;BME280;18039;52.188;21.024;2022-09-17T07:46:28;75295.78;;;-141.45;71.30
31403;BME280;18039;52.188;21.024;2022-09-17T07:48:55;75299.84;;;-141.45;70.54
31403;BME280;18039;52.188;21.024;2022-09-17T07:51:24;75303.91;;;-141.45;70.90
31403;BME280;18039;52.188;21.024;2022-09-17T07:53:54;75303.91;;;-141.45;71.17
31403;BME280;18039;52.188;21.024;2022-09-17T07:56:22;75299.84;;;-141.45;71.24
31403;BME280;18039;52.188;21.024;2022-09-17T07:58:50;75291.75;;;-141.45;71.54
31403;BME280;18039;52.188;21.024;2022-09-17T08:01:18;75295.78;;;-141.45;71.68
31403;BME280;18039;52.188;21.024;2022-09-17T08:03:48;75303.91;;;-141.45;71.75
31403;BME280;18039;52.188;21.024;2022-09-17T08:06:23;75301.88;;;-141.45;71.59
31403;BME280;18039;52.188;21.024;2022-09-17T08:08:56;75312.00;;;-141.45;71.79
31403;BME280;18039;52.188;21.024;2022-09-17T08:11:25;75299.84;;;-141.45;71.48
31403;BME280;18039;52.188;21.024;2022-09-17T08:14:14;75295.78;;;-141.45;71.85
31403;BME280;18039;52.188;21.024;2022-09-17T08:16:41;75297.81;;;-141.45;72.03
31403;BME280;18039;52.188;21.024;2022-09-17T08:19:08;75291.75;;;-141.45;71.99
31403;BME280;18039;52.188;21.024;2022-09-17T08:21:38;75299.84;;;-141.45;72.08
31403;BME280;18039;52.188;21.024;2022-09-17T08:24:05;75303.91;;;-141.45;72.69
31403;BME280;18039;52.188;21.024;2022-09-17T08:26:32;75316.06;;;-141.45;73.01
31403;BME280;18039;52.188;21.024;2022-09-17T08:28:59;75328.22;;;-141.45;73.19
31403;BME280;18039;52.188;21.024;2022-09-17T08:31:26;75340.38;;;-141.45;73.69
31403;BME280;18039;52.188;21.024;2022-09-17T08:33:55;75352.53;;;-141.45;74.44
31403;BME280;18039;52.188;21.024;2022-09-17T08:36:22;75350.50;;;-141.45;74.92
31403;BME280;18039;52.188;21.024;2022-09-17T08:38:53;75340.38;;;-141.45;75.17
31403;BME280;18039;52.188;21.024;2022-09-17T08:44:17;75324.16;;;-141.45;75.25
31403;BME280;18039;52.188;21.024;2022-09-17T08:47:07;75303.91;;;-141.45;74.75
31403;BME280;18039;52.188;21.024;2022-09-17T08:49:45;75287.69;;;-141.45;74.55
31403;BME280;18039;52.188;21.024;2022-09-17T08:57:58;75271.47;;;-141.45;73.03
31403;BME280;18039;52.188;21.024;2022-09-17T09:00:33;75267.44;;;-141.45;73.08
31403;BME280;18039;52.188;21.024;2022-09-17T09:03:31;75259.31;;;-141.45;72.88
31403;BME280;18039;52.188;21.024;2022-09-17T09:06:03;75245.13;;;-141.45;72.43
31403;BME280;18039;52.188;21.024;2022-09-17T09:08:49;75222.84;;;-141.45;71.58
31403;BME280;18039;52.188;21.024;2022-09-17T09:11:25;75226.91;;;-141.45;70.39
31403;BME280;18039;52.188;21.024;2022-09-17T09:14:36;75228.94;;;-141.45;70.52
31403;BME280;18039;52.188;21.024;2022-09-17T09:17:08;75222.84;;;-141.45;70.08
31403;BME280;18039;52.188;21.024;2022-09-17T09:19:41;75230.94;;;-141.45;70.49
31403;BME280;18039;52.188;21.024;2022-09-17T09:24:44;75241.09;;;-141.45;70.79
31403;BME280;18039;52.188;21.024;2022-09-17T09:27:18;75247.16;;;-141.45;71.65
31403;BME280;18039;52.188;21.024;2022-09-17T09:30:03;75247.16;;;-141.45;71.51
31403;BME280;18039;52.188;21.024;2022-09-17T09:35:16;75222.84;;;-141.45;70.69
31403;BME280;18039;52.188;21.024;2022-09-17T09:40:36;75194.47;;;-141.45;69.44
31403;BME280;18039;52.188;21.024;2022-09-17T09:43:21;75190.44;;;-141.45;69.91
31403;BME280;18039;52.188;21.024;2022-09-17T09:48:41;75174.22;;;-141.45;70.12
31403;BME280;18039;52.188;21.024;2022-09-17T09:51:24;75149.91;;;-141.45;69.71
31403;BME280;18039;52.188;21.024;2022-09-17T09:54:26;75141.78;;;-141.45;68.88
31403;BME280;18039;52.188;21.024;2022-09-17T09:56:59;75149.91;;;-141.45;69.02
31403;BME280;18039;52.188;21.024;2022-09-17T09:59:29;75162.06;;;-141.45;69.11
31403;BME280;18039;52.188;21.024;2022-09-17T10:01:56;75178.28;;;-141.45;68.56
31403;BME280;18039;52.188;21.024;2022-09-17T10:04:27;75198.53;;;-141.45;68.28
31403;BME280;18039;52.188;21.024;2022-09-17T10:07:05;75194.47;;;-141.45;68.84
31403;BME280;18039;52.188;21.024;2022-09-17T10:09:38;75182.31;;;-141.45;68.86
31403;BME280;18039;52.188;21.024;2022-09-17T10:14:36;75186.38;;;-141.45;67.73
31403;BME280;18039;52.188;21.024;2022-09-17T10:17:29;75188.41;;;-141.45;68.26
31403;BME280;18039;52.188;21.024;2022-09-17T10:22:39;75174.22;;;-141.45;68.34
31403;BME280;18039;52.188;21.024;2022-09-17T10:25:30;75160.03;;;-141.45;66.79
31403;BME280;18039;52.188;21.024;2022-09-17T10:28:00;75178.28;;;-141.45;67.33
31403;BME280;18039;52.188;21.024;2022-09-17T10:30:28;75190.44;;;-141.45;66.93
31403;BME280;18039;52.188;21.024;2022-09-17T10:33:20;75204.63;;;-141.45;67.17
31403;BME280;18039;52.188;21.024;2022-09-17T10:36:14;75247.16;;;-141.45;71.81
31403;BME280;18039;52.188;21.024;2022-09-17T10:38:43;75314.03;;;-141.45;75.11
31403;BME280;18039;52.188;21.024;2022-09-17T10:41:18;75364.69;;;-141.45;77.65
31403;BME280;18039;52.188;21.024;2022-09-17T10:43:48;75401.16;;;-141.45;79.81
31403;BME280;18039;52.188;21.024;2022-09-17T10:46:24;75419.41;;;-141.45;80.46
31403;BME280;18039;52.188;21.024;2022-09-17T10:49:09;75413.31;;;-141.45;81.48
31403;BME280;18039;52.188;21.024;2022-09-17T10:51:38;75409.28;;;-141.45;81.60
31403;BME280;18039;52.188;21.024;2022-09-17T10:54:26;75397.13;;;-141.45;81.49
31403;BME280;18039;52.188;21.024;2022-09-17T10:56:58;75380.91;;;-141.45;81.24
31403;BME280;18039;52.188;21.024;2022-09-17T10:59:40;75382.94;;;-141.45;81.04
31403;BME280;18039;52.188;21.024;2022-09-17T11:05:08;75391.03;;;-141.45;81.09
31403;BME280;18039;52.188;21.024;2022-09-17T11:10:34;75413.31;;;-141.45;82.82
31403;BME280;18039;52.188;21.024;2022-09-17T11:21:31;75340.38;;;-141.45;83.98
31403;BME280;18039;52.188;21.024;2022-09-17T11:35:30;75348.47;;;-141.45;82.91
31403;BME280;18039;52.188;21.024;2022-09-17T11:38:22;75346.44;;;-141.45;82.07
31403;BME280;18039;52.188;21.024;2022-09-17T11:41:15;75344.44;;;-141.45;82.27
31403;BME280;18039;52.188;21.024;2022-09-17T11:43:49;75330.25;;;-141.45;82.20
31403;BME280;18039;52.188;21.024;2022-09-17T11:46:27;75309.97;;;-141.45;81.66
31403;BME280;18039;52.188;21.024;2022-09-17T11:49:01;75285.66;;;-141.45;81.00
31403;BME280;18039;52.188;21.024;2022-09-17T11:51:42;75255.25;;;-141.45;80.34
31403;BME280;18039;52.188;21.024;2022-09-17T11:54:36;75222.84;;;-141.45;79.32
31403;BME280;18039;52.188;21.024;2022-09-17T11:57:11;75210.69;;;-141.45;75.37
31403;BME280;18039;52.188;21.024;2022-09-17T11:59:48;75196.50;;;-141.45;73.81
31403;BME280;18039;52.188;21.024;2022-09-17T12:02:37;75186.38;;;-141.45;72.71
31403;BME280;18039;52.188;21.024;2022-09-17T12:05:21;75166.09;;;-141.45;71.36
31403;BME280;18039;52.188;21.024;2022-09-17T12:10:42;75141.78;;;-141.45;71.65
31403;BME280;18039;52.188;21.024;2022-09-17T12:16:07;75097.22;;;-141.45;70.18
31403;BME280;18039;52.188;21.024;2022-09-17T12:18:48;75105.31;;;-141.45;68.66
31403;BME280;18039;52.188;21.024;2022-09-17T12:21:24;75111.41;;;-141.45;69.28
31403;BME280;18039;52.188;21.024;2022-09-17T12:24:06;75113.44;;;-141.45;69.45
31403;BME280;18039;52.188;21.024;2022-09-17T12:26:51;75125.59;;;-141.45;68.02
31403;BME280;18039;52.188;21.024;2022-09-17T12:32:36;75117.47;;;-141.45;68.79
31403;BME280;18039;52.188;21.024;2022-09-17T12:35:16;75113.44;;;-141.45;66.12
31403;BME280;18039;52.188;21.024;2022-09-17T12:38:29;75129.63;;;-141.45;67.26
31403;BME280;18039;52.188;21.024;2022-09-17T12:41:20;75149.91;;;-141.45;67.72
31403;BME280;18039;52.188;21.024;2022-09-17T12:46:52;75141.78;;;-141.45;68.23
31403;BME280;18039;52.188;21.024;2022-09-17T12:49:41;75133.69;;;-141.45;68.45
31403;BME280;18039;52.188;21.024;2022-09-17T12:52:24;75129.63;;;-141.45;68.64
31403;BME280;18039;52.188;21.024;2022-09-17T12:55:23;75117.47;;;-141.45;68.66
31403;BME280;18039;52.188;21.024;2022-09-17T13:00:35;75117.47;;;-141.45;68.74
31403;BME280;18039;52.188;21.024;2022-09-17T13:12:05;75137.75;;;-141.45;69.48
31403;BME280;18039;52.188;21.024;2022-09-17T13:14:48;75151.94;;;-141.45;70.02
31403;BME280;18039;52.188;21.024;2022-09-17T13:20:14;75182.31;;;-141.45;71.00
31403;BME280;18039;52.188;21.024;2022-09-17T13:22:47;75188.41;;;-141.45;71.18
31403;BME280;18039;52.188;21.024;2022-09-17T13:25:16;75190.44;;;-141.45;71.58
31403;BME280;18039;52.188;21.024;2022-09-17T13:27:46;75186.38;;;-141.45;71.76
31403;BME280;18039;52.188;21.024;2022-09-17T13:30:18;75182.31;;;-141.45;71.67
31403;BME280;18039;52.188;21.024;2022-09-17T13:32:48;75182.31;;;-141.45;72.04
31403;BME280;18039;52.188;21.024;2022-09-17T13:40:26;75166.09;;;-141.45;72.04
31403;BME280;18039;52.188;21.024;2022-09-17T13:45:31;75145.84;;;-141.45;69.57
31403;BME280;18039;52.188;21.024;2022-09-17T13:48:04;75149.91;;;-141.45;69.19
31403;BME280;18039;52.188;21.024;2022-09-17T13:50:36;75151.94;;;-141.45;67.77
31403;BME280;18039;52.188;21.024;2022-09-17T13:55:48;75153.94;;;-141.45;69.05
31403;BME280;18039;52.188;21.024;2022-09-17T14:01:08;75168.13;;;-141.45;70.94
31403;BME280;18039;52.188;21.024;2022-09-17T14:21:33;75149.91;;;-141.45;72.86
31403;BME280;18039;52.188;21.024;2022-09-17T14:24:03;75149.91;;;-141.45;72.91
31403;BME280;18039;52.188;21.024;2022-09-17T14:32:17;75125.59;;;-141.45;72.79
31403;BME280;18039;52.188;21.024;2022-09-17T14:34:48;75117.47;;;-141.45;72.60
31403;BME280;18039;52.188;21.024;2022-09-17T14:37:18;75117.47;;;-141.45;72.89
31403;BME280;18039;52.188;21.024;2022-09-17T14:39:47;75113.44;;;-141.45;72.80
31403;BME280;18039;52.188;21.024;2022-09-17T14:42:19;75117.47;;;-141.45;73.16
31403;BME280;18039;52.188;21.024;2022-09-17T14:44:57;75117.47;;;-141.45;73.15
31403;BME280;18039;52.188;21.024;2022-09-17T14:47:25;75117.47;;;-141.45;73.38
31403;BME280;18039;52.188;21.024;2022-09-17T14:49:53;75133.69;;;-141.45;73.31
31403;BME280;18039;52.188;21.024;2022-09-17T14:52:26;75125.59;;;-141.45;73.21
31403;BME280;18039;52.188;21.024;2022-09-17T14:57:50;75115.47;;;-141.45;72.80
31403;BME280;18039;52.188;21.024;2022-09-17T15:00:23;75109.38;;;-141.45;72.58
31403;BME280;18039;52.188;21.024;2022-09-17T15:02:54;75091.13;;;-141.45;72.31
31403;BME280;18039;52.188;21.024;2022-09-17T15:08:13;75062.78;;;-141.45;70.78
31403;BME280;18039;52.188;21.024;2022-09-17T15:10:53;75044.53;;;-141.45;70.53
31403;BME280;18039;52.188;21.024;2022-09-17T15:13:33;75032.38;;;-141.45;69.90
31403;BME280;18039;52.188;21.024;2022-09-17T15:16:05;75036.44;;;-141.45;69.01
31403;BME280;18039;52.188;21.024;2022-09-17T15:18:42;75036.44;;;-141.45;68.05
31403;BME280;18039;52.188;21.024;2022-09-17T15:24:07;75056.69;;;-141.45;69.03
31403;BME280;18039;52.188;21.024;2022-09-17T15:26:39;75056.69;;;-141.45;68.88
31403;BME280;18039;52.188;21.024;2022-09-17T15:29:10;75062.78;;;-141.45;69.11
31403;BME280;18039;52.188;21.024;2022-09-17T15:31:38;75081.00;;;-141.45;69.61
31403;BME280;18039;52.188;21.024;2022-09-17T15:34:05;75089.13;;;-141.45;69.83
31403;BME280;18039;52.188;21.024;2022-09-17T15:36:35;75109.38;;;-141.45;70.77
31403;BME280;18039;52.188;21.024;2022-09-17T15:39:28;75109.38;;;-141.45;70.78
31403;BME280;18039;52.188;21.024;2022-09-17T15:41:56;75121.53;;;-141.45;71.99
31403;BME280;18039;52.188;21.024;2022-09-17T15:44:24;75129.63;;;-141.45;71.79